Time;durP1;ratioP1;P1;durP2;ratioP2;P2;SDS_P1;SDS_P2;PMS_P1;PMS_P2;Temp;Humidity;BMP_temperature;BMP_pressure;BME280_temperature;BME280_humidity;BME280_pressure;Samples;Min_cycle;Max_cycle;Signal;HPM_P1;HPM_P2
2024/03/08 03:19:05;;;;;;;37.67;23.55;;;;;;;5.87;100.00;99799.63;4900723;29;20035;-96
2024/03/08 03:22:00;;;;;;;;;;;;;;;;;;;;;
2024/03/08 03:25:57;;;;;;;32.15;17.75;;;;;;;5.73;100.00;99795.53;4844633;29;20049;-94
2024/03/08 03:38:13;;;;;;;;;;;;;;;5.68;100.00;99781.97;4898664;29;20522;-96
2024/03/08 03:53:17;;;;;;;32.58;19.40;;;;;;;5.76;100.00;99765.59;4838728;29;20042;-96
2024/03/08 03:56:36;;;;;;;37.50;20.02;;;;;;;5.71;100.00;99760.75;4819588;29;20050;-96
2024/03/08 04:04:51;;;;;;;;;;;;;;;;;;;;;
2024/03/08 04:25:58;;;;;;;38.03;20.13;;;;;;;5.65;100.00;99714.91;4872194;29;20119;-96
2024/03/08 04:41:49;;;;;;;31.27;19.33;;;;;;;5.53;100.00;99706.28;4882930;29;20093;-96
2024/03/08 04:44:44;;;;;;;29.38;14.25;;;;;;;5.63;100.00;99703.72;4889803;29;20036;-96
2024/03/08 04:47:59;;;;;;;41.72;21.52;;;;;;;5.63;100.00;99680.13;4836244;29;20060;-96
2024/03/08 04:50:47;;;;;;;35.67;17.67;;;;;;;5.50;100.00;99672.47;4779883;29;20078;-95
2024/03/08 04:53:20;;;;;;;36.40;18.08;;;;;;;5.44;100.00;99673.84;4776809;29;20111;-94
2024/03/08 04:55:57;;;;;;;29.42;17.70;;;;;;;5.42;100.00;99670.50;4733272;30;20063;-94
2024/03/08 04:58:26;;;;;;;22.63;12.17;;;;;;;5.16;100.00;99670.09;4724524;30;20060;-96
2024/03/08 05:01:24;;;;;;;20.02;9.60;;;;;;;5.10;100.00;99666.16;4787522;29;20536;-95
2024/03/08 05:04:02;;;;;;;32.80;17.88;;;;;;;5.11;100.00;99665.22;4796373;29;20061;-96
2024/03/08 05:06:43;;;;;;;16.85;9.38;;;;;;;4.93;100.00;99660.56;4791602;29;20196;-95
2024/03/08 05:09:33;;;;;;;32.67;14.88;;;;;;;5.03;100.00;99659.78;4804017;29;21256;-95
2024/03/08 05:12:11;;;;;;;31.48;13.18;;;;;;;4.81;100.00;99648.47;4780773;29;20050;-94
2024/03/08 05:14:46;;;;;;;23.83;14.63;;;;;;;4.79;100.00;99658.25;4805277;29;20160;-95
2024/03/08 05:17:30;;;;;;;31.00;13.43;;;;;;;4.75;100.00;99662.91;4818534;29;20636;-95
2024/03/08 05:20:20;;;;;;;16.67;7.78;;;;;;;4.67;100.00;99658.28;4787813;29;20532;-95
2024/03/08 05:22:47;;;;;;;18.02;8.38;;;;;;;4.54;100.00;99658.44;4827500;29;20137;-96
2024/03/08 05:25:17;;;;;;;16.55;8.52;;;;;;;4.59;100.00;99660.69;4845802;29;20033;-96
2024/03/08 05:27:56;;;;;;;25.80;14.95;;;;;;;4.60;100.00;99651.91;4863313;29;20084;-94
2024/03/08 05:30:44;;;;;;;30.25;13.43;;;;;;;4.58;100.00;99656.41;4876333;29;20044;-96
2024/03/08 05:33:23;;;;;;;26.63;14.60;;;;;;;4.55;100.00;99657.50;4865913;29;20039;-95
2024/03/08 05:36:08;;;;;;;20.70;11.85;;;;;;;4.54;100.00;99658.44;4878614;29;20135;-96
2024/03/08 05:38:43;;;;;;;20.20;11.68;;;;;;;4.42;100.00;99646.38;4880084;29;20128;-92
2024/03/08 05:41:32;;;;;;;24.77;12.25;;;;;;;4.55;100.00;99652.28;4848704;29;20032;-96
2024/03/08 05:43:58;;;;;;;16.80;8.98;;;;;;;4.37;100.00;99662.44;4865465;29;20115;-94
2024/03/08 05:46:25;;;;;;;16.83;8.55;;;;;;;4.35;100.00;99651.25;4848058;29;20044;-88
2024/03/08 05:48:51;;;;;;;17.88;8.55;;;;;;;4.30;100.00;99654.25;4862047;29;20377;-88
2024/03/08 05:51:34;;;;;;;14.25;6.78;;;;;;;4.31;100.00;99640.22;4875647;29;20049;-89
2024/03/08 05:54:11;;;;;;;22.67;12.07;;;;;;;4.30;100.00;99646.38;4861644;29;20051;-90
2024/03/08 05:56:43;;;;;;;20.13;9.45;;;;;;;4.31;100.00;99647.22;4863727;29;20044;-91
2024/03/08 05:59:52;;;;;;;21.55;12.30;;;;;;;4.27;100.00;99635.38;4842430;29;20112;-91
2024/03/08 06:02:52;;;;;;;18.65;9.52;;;;;;;4.15;100.00;99656.31;4851210;29;20044;-86
2024/03/08 06:05:23;;;;;;;16.92;8.93;;;;;;;4.13;100.00;99650.38;4836756;29;20044;-86
2024/03/08 06:08:08;;;;;;;17.08;9.85;;;;;;;4.16;100.00;99646.66;4871232;29;20101;-93
2024/03/08 06:10:37;;;;;;;25.50;14.60;;;;;;;4.20;100.00;99643.69;4861190;29;20049;-86
2024/03/08 06:13:03;;;;;;;24.63;12.73;;;;;;;4.17;100.00;99637.88;4844918;29;20148;-89
2024/03/08 06:15:32;;;;;;;28.63;13.90;;;;;;;4.25;100.00;99624.19;4841187;29;20555;-90
2024/03/08 06:18:01;;;;;;;27.27;14.77;;;;;;;4.28;100.00;99632.63;4861088;29;20083;-92
2024/03/08 06:20:43;;;;;;;21.50;12.35;;;;;;;4.30;100.00;99622.03;4856472;29;20044;-92
2024/03/08 06:23:12;;;;;;;38.50;12.13;;;;;;;4.25;100.00;99630.25;4864930;29;20036;-93
2024/03/08 06:25:38;;;;;;;22.83;16.02;;;;;;;4.29;100.00;99625.59;4850261;29;20124;-91
2024/03/08 06:28:16;;;;;;;26.70;13.27;;;;;;;4.19;100.00;99615.03;4844309;29;20060;-91
2024/03/08 06:30:54;;;;;;;22.80;12.63;;;;;;;4.15;100.00;99634.56;4866234;29;20123;-92
2024/03/08 06:33:20;;;;;;;29.77;16.50;;;;;;;4.22;100.00;99625.28;4867530;29;20503;-86
2024/03/08 06:35:46;;;;;;;32.78;19.10;;;;;;;4.18;100.00;99614.22;4877242;29;20037;-91
2024/03/08 06:38:12;;;;;;;33.15;19.23;;;;;;;4.17;100.00;99620.38;4867521;29;20044;-91
2024/03/08 06:40:38;;;;;;;36.00;18.83;;;;;;;4.18;100.00;99624.69;4862364;29;20029;-86
2024/03/08 06:43:15;;;;;;;24.48;12.50;;;;;;;4.05;100.00;99606.53;4881676;29;20078;-90
2024/03/08 06:45:50;;;;;;;30.98;15.52;;;;;;;4.12;100.00;99612.09;4852091;29;20036;-91
2024/03/08 06:48:33;;;;;;;30.23;15.32;;;;;;;4.07;100.00;99609.84;4855432;29;20040;-90
2024/03/08 06:50:58;;;;;;;33.70;18.70;;;;;;;4.24;100.00;99605.03;4849419;29;20366;-91
2024/03/08 06:53:38;;;;;;;26.17;13.18;;;;;;;4.19;100.00;99605.41;4852264;29;20491;-94
2024/03/08 06:56:09;;;;;;;24.70;15.13;;;;;;;4.15;100.00;99593.53;4872607;29;20476;-94
2024/03/08 06:58:42;;;;;;;25.50;12.90;;;;;;;4.07;100.00;99590.69;4891891;29;20033;-92
2024/03/08 07:01:15;;;;;;;23.83;12.95;;;;;;;4.16;100.00;99596.97;4868660;29;20392;-92
2024/03/08 07:04:18;;;;;;;;;;;;;;;;;;;;;
2024/03/08 07:07:15;;;;;;;25.60;10.40;;;;;;;4.01;100.00;99578.13;4882890;29;20143;-91
2024/03/08 07:10:25;;;;;;;17.40;9.45;;;;;;;4.10;100.00;99577.38;4881301;29;20605;-94
2024/03/08 07:13:17;;;;;;;15.27;7.40;;;;;;;4.08;100.00;99590.59;4857407;29;20080;-91
2024/03/08 07:15:52;;;;;;;19.77;11.15;;;;;;;4.16;100.00;99583.88;4850768;29;20079;-94
2024/03/08 07:18:19;;;;;;;25.98;15.48;;;;;;;4.14;100.00;99581.41;4865542;29;20053;-91
2024/03/08 07:20:55;;;;;;;19.02;10.52;;;;;;;4.23;100.00;99585.06;4849948;29;20045;-89
2024/03/08 07:26:52;;;;;;;27.90;15.40;;;;;;;4.24;100.00;99597.19;4873406;29;20080;-90
2024/03/08 07:29:17;;;;;;;23.63;13.90;;;;;;;4.34;100.00;99589.44;4890108;29;20029;-89
2024/03/08 07:32:20;;;;;;;22.80;14.35;;;;;;;4.30;100.00;99591.44;4851260;29;20051;-90
2024/03/08 07:35:08;;;;;;;32.15;18.65;;;;;;;4.38;100.00;99597.88;4878834;29;20032;-89
2024/03/08 07:37:49;;;;;;;30.98;17.15;;;;;;;4.41;100.00;99600.22;4857000;29;20497;-91
2024/03/08 07:44:56;;;;;;;25.35;14.52;;;;;;;4.54;100.00;99600.88;4892117;29;20536;-90
2024/03/08 07:48:21;;;;;;;23.65;10.32;;;;;;;4.53;100.00;99599.22;4878831;29;20123;-92
2024/03/08 07:51:41;;;;;;;26.95;16.80;;;;;;;4.73;100.00;99604.59;4868675;29;20051;-92
2024/03/08 07:59:32;;;;;;;;;;;;;;;;;;;;;
2024/03/08 08:09:47;;;;;;;28.88;16.60;;;;;;;4.77;100.00;99603.38;4869035;29;20170;-92
2024/03/08 08:12:38;;;;;;;27.77;14.45;;;;;;;4.71;100.00;99591.63;4848860;29;20049;-88
2024/03/08 08:15:39;;;;;;;22.17;13.93;;;;;;;4.74;100.00;99598.41;4865033;29;20064;-94
2024/03/08 08:18:17;;;;;;;27.27;15.68;;;;;;;4.83;100.00;99600.25;4870882;29;20037;-92
2024/03/08 08:21:39;;;;;;;29.92;16.67;;;;;;;4.91;100.00;99597.00;4850929;29;20041;-93
2024/03/08 08:24:36;;;;;;;30.40;17.55;;;;;;;4.91;100.00;99591.75;4853127;29;20988;-92
2024/03/08 08:27:23;;;;;;;23.13;14.32;;;;;;;4.88;100.00;99591.19;4860269;29;20033;-93
2024/03/08 08:33:33;;;;;;;24.33;12.73;;;;;;;4.70;100.00;99582.13;4873054;29;20063;-93
2024/03/08 08:37:00;;;;;;;24.33;13.95;;;;;;;4.69;100.00;99577.84;4862854;29;20037;-90
2024/03/08 08:39:29;;;;;;;18.73;9.48;;;;;;;4.64;100.00;99573.94;4860906;29;20088;-92
2024/03/08 08:43:04;;;;;;;16.15;9.35;;;;;;;4.77;100.00;99582.44;4873012;29;20043;-94
2024/03/08 08:46:26;;;;;;;23.80;13.48;;;;;;;4.92;100.00;99571.66;4863039;29;20044;-91
2024/03/08 08:49:40;;;;;;;24.55;12.85;;;;;;;4.98;100.00;99573.75;4859000;29;20059;-96
2024/03/08 08:57:56;;;;;;;17.25;9.65;;;;;;;5.04;100.00;99570.59;4812808;29;20042;-92
2024/03/08 09:00:26;;;;;;;24.67;13.40;;;;;;;4.98;100.00;99563.28;4802542;29;20046;-88
2024/03/08 09:03:57;;;;;;;17.00;10.30;;;;;;;4.95;100.00;99555.69;4852861;29;20049;-90
2024/03/08 09:10:24;;;;;;;13.85;6.40;;;;;;;5.02;100.00;99548.94;4813723;29;20053;-90
2024/03/08 09:12:53;;;;;;;12.20;8.80;;;;;;;5.05;100.00;99547.84;4816160;29;20053;-89
2024/03/08 09:15:56;;;;;;;18.77;10.32;;;;;;;5.15;100.00;99537.41;4827980;29;20512;-92
2024/03/08 09:18:29;;;;;;;22.85;13.75;;;;;;;5.27;100.00;99535.53;4839611;29;20059;-92
2024/03/08 09:27:33;;;;;;;26.45;14.80;;;;;;;5.45;100.00;99536.56;4837089;29;20114;-86
2024/03/08 09:29:59;;;;;;;21.73;11.60;;;;;;;5.41;100.00;99537.81;4808799;29;20058;-85
2024/03/08 09:32:26;;;;;;;20.83;11.07;;;;;;;5.42;100.00;99525.50;4825936;29;20046;-86
2024/03/08 09:34:52;;;;;;;28.13;15.90;;;;;;;5.46;100.00;99534.78;4850842;29;20132;-85
2024/03/08 09:37:51;;;;;;;26.45;14.30;;;;;;;5.49;100.00;99523.19;4863591;29;20529;-87
2024/03/08 09:40:19;;;;;;;30.88;15.27;;;;;;;5.45;100.00;99522.63;4887742;29;20040;-86
2024/03/08 09:43:48;;;;;;;14.27;8.05;;;;;;;5.32;100.00;99523.69;4873071;29;20052;-85
2024/03/08 09:46:52;;;;;;;30.67;19.08;;;;;;;5.59;100.00;99509.13;4844226;29;20040;-86
2024/03/08 09:49:21;;;;;;;16.77;7.38;;;;;;;5.53;100.00;99501.81;4875044;29;20043;-86
2024/03/08 09:51:51;;;;;;;36.90;9.40;;;;;;;5.45;100.00;99509.50;4837979;29;20040;-87
2024/03/08 09:54:20;;;;;;;23.02;12.88;;;;;;;5.51;100.00;99501.13;4851398;29;20441;-85
2024/03/08 09:56:48;;;;;;;16.35;8.65;;;;;;;5.55;100.00;99517.41;4865091;29;20036;-83
2024/03/08 10:02:02;;;;;;;25.67;16.13;;;;;;;5.66;100.00;99501.56;4847159;29;20029;-89
2024/03/08 10:05:03;;;;;;;29.77;15.80;;;;;;;5.80;100.00;99504.75;4854842;29;20040;-88
2024/03/08 10:07:41;;;;;;;17.83;9.93;;;;;;;5.70;100.00;99486.41;4846946;29;20112;-87
2024/03/08 10:10:08;;;;;;;16.02;7.78;;;;;;;5.62;100.00;99494.13;4862707;29;20480;-85
2024/03/08 10:13:05;;;;;;;24.65;12.43;;;;;;;5.77;100.00;99490.13;4869462;29;20068;-87
2024/03/08 10:16:27;;;;;;;18.45;10.68;;;;;;;5.74;100.00;99473.81;4842055;29;20105;-88
2024/03/08 10:18:53;;;;;;;18.42;9.40;;;;;;;5.69;100.00;99482.94;4816689;29;20119;-87
2024/03/08 10:21:20;;;;;;;33.05;19.10;;;;;;;5.75;100.00;99486.00;4825870;29;20087;-86
2024/03/08 10:23:48;;;;;;;28.67;16.02;;;;;;;5.77;100.00;99486.66;4786243;29;20058;-87
2024/03/08 10:26:21;;;;;;;26.98;11.35;;;;;;;5.65;100.00;99478.94;4805727;29;20121;-86
2024/03/08 10:29:17;;;;;;;32.33;17.73;;;;;;;5.82;100.00;99458.25;4792092;29;20034;-83
2024/03/08 10:32:28;;;;;;;17.65;10.93;;;;;;;5.69;100.00;99453.25;4847757;29;20048;-85
2024/03/08 10:34:59;;;;;;;19.13;10.20;;;;;;;5.88;100.00;99459.47;4851751;29;20058;-87
2024/03/08 10:37:44;;;;;;;13.70;7.70;;;;;;;5.95;100.00;99461.44;4853267;29;20135;-85
2024/03/08 10:40:25;;;;;;;16.27;9.13;;;;;;;5.99;100.00;99464.59;4844727;29;20077;-87
2024/03/08 10:43:15;;;;;;;22.38;11.98;;;;;;;6.02;100.00;99442.50;4864604;29;20125;-85
2024/03/08 10:45:56;;;;;;;31.13;11.48;;;;;;;6.04;100.00;99445.81;4865060;29;20097;-88
2024/03/08 10:48:38;;;;;;;14.70;8.10;;;;;;;6.11;100.00;99449.56;4885958;29;20048;-85
2024/03/08 10:51:14;;;;;;;20.27;8.90;;;;;;;6.15;100.00;99436.97;4866016;29;20091;-85
2024/03/08 10:54:03;;;;;;;14.50;8.48;;;;;;;6.18;100.00;99448.03;4895868;29;20051;-83
2024/03/08 11:00:31;;;;;;;23.75;11.55;;;;;;;6.48;100.00;99442.75;4896606;29;20521;-85
2024/03/08 11:03:53;;;;;;;15.88;10.05;;;;;;;6.23;100.00;99436.31;4885839;29;20051;-88
2024/03/08 11:06:52;;;;;;;28.73;15.15;;;;;;;6.50;100.00;99430.28;4867593;29;20044;-85
2024/03/08 11:09:44;;;;;;;23.15;13.63;;;;;;;6.47;100.00;99435.81;4861260;29;20048;-87
2024/03/08 11:12:21;;;;;;;31.73;8.40;;;;;;;6.48;100.00;99426.16;4864123;29;20041;-87
2024/03/08 11:15:36;;;;;;;16.17;10.05;;;;;;;6.83;100.00;99409.69;4861173;29;20047;-86
2024/03/08 11:18:10;;;;;;;21.50;12.30;;;;;;;6.67;100.00;99420.81;4879118;29;20061;-82
2024/03/08 11:20:41;;;;;;;15.85;8.70;;;;;;;6.69;100.00;99426.75;4861001;29;20040;-86
2024/03/08 11:23:16;;;;;;;16.58;9.10;;;;;;;6.80;100.00;99403.94;4856418;29;20626;-86
2024/03/08 11:26:07;;;;;;;21.15;9.15;;;;;;;6.77;100.00;99406.84;4842303;29;20789;-83
2024/03/08 11:29:17;;;;;;;16.75;7.93;;;;;;;6.79;100.00;99403.09;4874422;29;20045;-84
2024/03/08 11:31:45;;;;;;;17.88;8.70;;;;;;;6.83;100.00;99393.94;4852926;29;20052;-86
2024/03/08 11:34:21;;;;;;;17.55;7.97;;;;;;;6.80;100.00;99398.66;4877814;29;20125;-85
2024/03/08 11:36:57;;;;;;;18.00;8.85;;;;;;;6.97;100.00;99404.09;4866160;29;20064;-86
2024/03/08 11:39:49;;;;;;;20.80;9.25;;;;;;;6.99;100.00;99396.91;4852494;29;20037;-86
2024/03/08 11:42:48;;;;;;;14.90;7.70;;;;;;;6.91;100.00;99395.81;4861774;29;20029;-86
2024/03/08 11:45:16;;;;;;;12.63;7.53;;;;;;;6.83;100.00;99390.50;4843061;29;20064;-84
2024/03/08 11:47:46;;;;;;;12.68;8.55;;;;;;;6.89;100.00;99392.53;4851432;29;20041;-84
2024/03/08 11:50:16;;;;;;;17.63;7.70;;;;;;;7.01;100.00;99387.06;4848057;29;20045;-87
2024/03/08 11:53:05;;;;;;;19.45;11.27;;;;;;;7.07;100.00;99374.16;4870932;29;20037;-88
2024/03/08 11:55:51;;;;;;;17.33;7.50;;;;;;;7.11;100.00;99387.00;4874334;29;20037;-87
2024/03/08 11:58:23;;;;;;;19.55;11.50;;;;;;;7.27;100.00;99362.69;4880307;29;20029;-87
2024/03/08 12:01:12;;;;;;;23.17;12.60;;;;;;;7.14;100.00;99377.03;4884137;29;20041;-87
2024/03/08 12:04:01;;;;;;;16.88;11.82;;;;;;;7.25;100.00;99370.72;4822386;29;20049;-87
2024/03/08 12:06:39;;;;;;;22.17;9.10;;;;;;;7.10;100.00;99377.47;4838876;29;20133;-84
2024/03/08 12:09:11;;;;;;;12.15;6.50;;;;;;;7.29;100.00;99355.50;4794046;29;20085;-88
2024/03/08 12:11:59;;;;;;;21.80;10.68;;;;;;;7.19;100.00;99345.88;4805480;29;20136;-82
2024/03/08 12:14:43;;;;;;;17.30;8.93;;;;;;;7.28;100.00;99335.44;4828483;29;20052;-83
2024/03/08 12:17:25;;;;;;;25.45;11.50;;;;;;;7.35;100.00;99354.91;4834008;29;20048;-87
2024/03/08 12:19:53;;;;;;;12.65;5.55;;;;;;;7.22;100.00;99349.16;4822424;29;20095;-84
2024/03/08 12:22:26;;;;;;;29.38;11.77;;;;;;;7.13;100.00;99332.50;4805731;29;20717;-88
2024/03/08 12:25:06;;;;;;;16.52;8.85;;;;;;;7.08;100.00;99332.97;4833179;29;20037;-85
2024/03/08 12:27:41;;;;;;;16.77;7.45;;;;;;;7.16;100.00;99337.47;4807304;29;20592;-85
2024/03/08 12:30:25;;;;;;;17.30;9.55;;;;;;;7.30;100.00;99338.75;4794404;29;20083;-84
2024/03/08 12:33:00;;;;;;;18.08;11.45;;;;;;;7.52;100.00;99334.00;4820560;29;20568;-83
2024/03/08 12:35:30;;;;;;;23.15;8.27;;;;;;;7.63;100.00;99325.06;4837902;29;20060;-85
2024/03/08 12:38:08;;;;;;;21.08;11.05;;;;;;;7.63;100.00;99319.81;4819954;29;20074;-86
2024/03/08 12:41:08;;;;;;;12.98;8.82;;;;;;;7.45;100.00;99323.28;4831745;29;20564;-84
2024/03/08 12:43:49;;;;;;;12.65;6.97;;;;;;;6.99;100.00;99313.63;4851786;29;20496;-89
2024/03/08 12:46:26;;;;;;;20.75;10.85;;;;;;;6.94;100.00;99311.47;4860491;29;20037;-86
2024/03/08 12:49:12;;;;;;;;;;;;;;;6.69;100.00;99302.50;4847810;29;20540;-83
2024/03/08 12:51:38;;;;;;;22.08;10.27;;;;;;;6.71;100.00;99297.94;4870137;29;19916;-85
2024/03/08 12:54:34;;;;;;;15.23;9.20;;;;;;;6.88;100.00;99304.19;4844594;29;20036;-87
2024/03/08 12:57:16;;;;;;;15.93;8.38;;;;;;;6.73;100.00;99301.25;4868148;29;20045;-89
2024/03/08 13:03:46;;;;;;;18.55;8.57;;;;;;;6.96;100.00;99292.94;4838443;29;20040;-87
2024/03/08 13:07:04;;;;;;;21.30;10.45;;;;;;;6.68;100.00;99285.09;4873220;29;20083;-81
2024/03/08 13:09:37;;;;;;;20.73;13.70;;;;;;;6.91;100.00;99282.06;4865104;29;20044;-83
2024/03/08 13:12:10;;;;;;;20.80;13.05;;;;;;;6.86;100.00;99265.91;4861247;29;20047;-86
2024/03/08 13:14:44;;;;;;;27.83;16.25;;;;;;;7.14;100.00;99271.91;4873175;29;20033;-86
2024/03/08 13:17:18;;;;;;;16.95;9.85;;;;;;;6.91;100.00;99267.09;4847311;29;20051;-85
2024/03/08 13:19:44;;;;;;;17.10;9.23;;;;;;;6.78;100.00;99266.66;4847552;29;20040;-84
2024/03/08 13:22:22;;;;;;;18.42;7.80;;;;;;;6.92;100.00;99252.19;4858611;29;20036;-86
2024/03/08 13:25:23;;;;;;;17.90;10.15;;;;;;;7.01;100.00;99259.16;4864346;29;20135;-91
2024/03/08 13:28:27;;;;;;;27.05;13.32;;;;;;;7.43;100.00;99254.25;4858790;29;20041;-86
2024/03/08 13:31:28;;;;;;;18.83;9.07;;;;;;;7.34;100.00;99250.72;4874441;29;20036;-86
2024/03/08 13:33:58;;;;;;;14.88;7.82;;;;;;;7.35;100.00;99275.19;4878156;29;20041;-85
2024/03/08 13:36:35;;;;;;;20.05;9.95;;;;;;;7.26;100.00;99258.56;4861031;29;20164;-83
2024/03/08 13:39:14;;;;;;;21.83;12.05;;;;;;;7.49;100.00;99234.38;4876242;29;20080;-85
2024/03/08 13:41:48;;;;;;;18.17;10.23;;;;;;;7.60;100.00;99247.28;4868119;29;20044;-87
2024/03/08 13:44:18;;;;;;;16.48;9.13;;;;;;;7.65;100.00;99263.44;4854325;29;20048;-88
2024/03/08 13:46:46;;;;;;;18.17;8.52;;;;;;;7.56;100.00;99254.63;4878535;29;20032;-85
2024/03/08 13:49:13;;;;;;;17.38;9.23;;;;;;;7.60;100.00;99254.38;4847021;29;20033;-86
2024/03/08 13:51:48;;;;;;;18.65;11.40;;;;;;;7.63;100.00;99219.88;4861079;29;20041;-88
2024/03/08 13:54:16;;;;;;;17.33;9.75;;;;;;;7.47;100.00;99239.78;4890076;29;20040;-85
2024/03/08 13:56:43;;;;;;;25.23;13.02;;;;;;;7.47;100.00;99239.00;4886149;29;20048;-89
2024/03/08 13:59:09;;;;;;;15.13;7.13;;;;;;;7.32;100.00;99242.16;4872200;29;20036;-86
2024/03/08 14:05:13;;;;;;;17.30;9.65;;;;;;;6.90;100.00;99256.75;4886161;29;20044;-83
2024/03/08 14:07:41;;;;;;;14.77;7.43;;;;;;;6.98;100.00;99243.69;4868356;29;20067;-87
2024/03/08 14:10:09;;;;;;;15.05;7.63;;;;;;;6.86;100.00;99239.66;4867475;29;20153;-86
2024/03/08 14:12:36;;;;;;;26.02;8.75;;;;;;;6.94;100.00;99234.47;4841402;29;20448;-84
2024/03/08 14:15:06;;;;;;;18.23;9.27;;;;;;;6.85;100.00;99244.06;4861116;29;20069;-86
2024/03/08 14:17:33;;;;;;;22.85;13.68;;;;;;;7.00;100.00;99223.38;4862502;29;20037;-85
2024/03/08 14:19:59;;;;;;;17.08;10.60;;;;;;;6.92;100.00;99221.50;4863278;29;20063;-86
2024/03/08 14:22:25;;;;;;;22.80;12.45;;;;;;;6.90;100.00;99210.31;4847993;29;20512;-87
2024/03/08 14:24:51;;;;;;;18.80;10.65;;;;;;;6.88;100.00;99214.06;4855541;29;20100;-82
2024/03/08 14:27:18;;;;;;;22.20;10.60;;;;;;;6.83;100.00;99196.94;4842339;29;20044;-86
2024/03/08 14:34:36;;;;;;;14.73;8.80;;;;;;;6.80;100.00;99209.56;4818496;29;20474;-88
2024/03/08 15:01:32;;;;;;;15.95;8.63;;;;;;;7.26;100.00;99150.78;4815860;29;20087;-86
2024/03/08 15:08:30;;;;;;;26.63;14.68;;;;;;;7.50;100.00;99123.78;4843287;29;20068;-84
2024/03/08 15:20:33;;;;;;;28.08;12.60;;;;;;;7.52;100.00;99105.22;4874256;29;20067;-88
2024/03/08 15:23:51;;;;;;;13.32;7.90;;;;;;;7.32;100.00;99089.72;4834566;29;20056;-82
2024/03/08 15:27:28;;;;;;;33.15;12.98;;;;;;;7.49;100.00;99085.34;4873944;29;20074;-83
2024/03/08 15:38:10;;;;;;;26.05;13.95;;;;;;;7.33;100.00;99067.69;4816675;29;20053;-85
2024/03/08 15:42:08;;;;;;;15.55;7.20;;;;;;;7.32;100.00;99069.53;4752876;30;20530;-85
2024/03/08 15:45:55;;;;;;;15.02;6.82;;;;;;;7.12;100.00;99066.28;4724901;30;20091;-87
2024/03/08 15:49:32;;;;;;;23.02;11.52;;;;;;;7.05;100.00;99083.66;4746360;30;20109;-87
2024/03/08 15:57:57;;;;;;;;;;;;;;;;;;;;;
2024/03/08 16:08:41;;;;;;;16.83;9.07;;;;;;;6.68;100.00;99061.91;4807936;29;20045;-86
2024/03/08 16:54:58;;;;;;;33.58;18.27;;;;;;;6.78;100.00;99004.03;4779499;29;20050;-85
2024/03/08 17:06:38;;;;;;;21.33;11.80;;;;;;;6.52;100.00;99012.72;4802645;29;20049;-86
2024/03/08 17:09:11;;;;;;;16.40;7.93;;;;;;;6.36;100.00;99018.69;4798899;29;20042;-86
2024/03/08 17:11:39;;;;;;;9.15;5.45;;;;;;;6.45;100.00;99020.38;4817087;29;20084;-84
2024/03/08 17:14:05;;;;;;;32.20;16.80;;;;;;;6.50;100.00;99015.50;4837480;29;20140;-85
2024/03/08 17:16:37;;;;;;;22.77;11.45;;;;;;;6.53;100.00;98999.44;4820200;29;20068;-85
2024/03/08 17:19:08;;;;;;;24.73;14.02;;;;;;;6.52;100.00;99005.69;4822040;29;20090;-85
2024/03/08 17:21:34;;;;;;;28.92;16.85;;;;;;;6.58;100.00;99012.09;4815267;29;20123;-85
2024/03/08 17:25:07;;;;;;;32.67;15.50;;;;;;;6.60;100.00;99004.06;4830752;29;20046;-85
2024/03/08 17:28:26;;;;;;;26.75;16.40;;;;;;;6.63;100.00;98999.34;4825168;29;20037;-85
2024/03/08 17:44:57;;;;;;;25.88;15.45;;;;;;;6.51;100.00;99016.34;4810761;29;20204;-86
2024/03/08 18:01:13;;;;;;;22.40;11.00;;;;;;;6.37;100.00;99025.59;4783028;29;20057;-85
2024/03/08 18:03:42;;;;;;;27.50;14.93;;;;;;;6.38;100.00;99022.81;4749857;29;20500;-86
2024/03/08 18:06:10;;;;;;;21.95;12.50;;;;;;;6.28;100.00;99017.66;4773103;29;20052;-85
2024/03/08 18:08:37;;;;;;;17.15;9.15;;;;;;;6.26;100.00;99031.91;4820857;29;20178;-83
2024/03/08 18:11:03;;;;;;;23.75;14.20;;;;;;;6.21;100.00;99027.13;4842529;29;20116;-84
2024/03/08 18:13:32;;;;;;;23.98;11.95;;;;;;;6.25;100.00;99011.88;4862369;29;20056;-85
2024/03/08 18:16:11;;;;;;;18.40;10.65;;;;;;;6.20;100.00;99007.91;4859281;29;20040;-87
2024/03/08 18:18:38;;;;;;;25.98;12.88;;;;;;;6.15;100.00;99002.28;4858765;29;20086;-84
2024/03/08 18:21:09;;;;;;;18.80;10.40;;;;;;;6.10;100.00;99006.34;4830042;29;20045;-86
2024/03/08 18:23:35;;;;;;;22.50;10.73;;;;;;;6.10;100.00;99006.34;4836978;29;20040;-84
2024/03/08 18:26:05;;;;;;;17.90;11.60;;;;;;;6.12;100.00;99004.38;4839047;29;20037;-87
2024/03/08 18:28:33;;;;;;;26.38;15.52;;;;;;;6.18;100.00;99007.22;4834894;29;20037;-86
2024/03/08 18:31:42;;;;;;;24.40;13.48;;;;;;;6.14;100.00;99002.44;4844849;29;20033;-88
2024/03/08 18:34:17;;;;;;;28.88;14.70;;;;;;;6.15;100.00;98999.66;4842299;29;20441;-84
2024/03/08 18:36:44;;;;;;;28.98;14.98;;;;;;;6.18;100.00;99001.19;4863486;29;20498;-85
2024/03/08 18:39:16;;;;;;;29.98;15.63;;;;;;;6.15;100.00;98993.59;4873386;29;20038;-84
2024/03/08 18:41:45;;;;;;;28.23;15.80;;;;;;;6.10;100.00;98999.28;4860114;29;20093;-85
2024/03/08 18:44:51;;;;;;;25.60;13.32;;;;;;;6.13;100.00;98987.69;4860506;29;20033;-84
2024/03/08 18:47:24;;;;;;;;;;;;;;;5.99;100.00;98989.03;4859510;29;20467;-85
2024/03/08 18:49:55;;;;;;;28.13;12.57;;;;;;;5.91;100.00;98982.72;4856249;29;19931;-84
2024/03/08 18:52:57;;;;;;;29.58;15.63;;;;;;;6.01;100.00;98976.56;4872500;29;20052;-85
2024/03/08 18:55:43;;;;;;;28.83;14.85;;;;;;;5.99;100.00;98987.19;4846332;29;20101;-85
2024/03/08 18:58:32;;;;;;;25.67;14.45;;;;;;;5.86;100.00;98990.19;4850058;29;20044;-86
2024/03/08 19:01:18;;;;;;;25.43;15.20;;;;;;;5.87;100.00;98983.16;4853243;29;20512;-88
2024/03/08 19:08:55;;;;;;;22.50;11.73;;;;;;;5.77;100.00;98994.53;4783651;29;20062;-87
2024/03/08 19:11:29;;;;;;;26.25;15.35;;;;;;;5.83;100.00;98988.69;4783810;29;20059;-86
2024/03/08 19:14:37;;;;;;;32.40;17.00;;;;;;;5.96;100.00;98998.00;4821284;29;20074;-85
2024/03/08 19:22:58;;;;;;;23.15;12.57;;;;;;;6.07;100.00;98989.94;4800504;29;20038;-86
2024/03/08 19:30:20;;;;;;;31.70;19.30;;;;;;;6.24;100.00;98991.88;4696693;30;20554;-88
2024/03/08 19:38:21;;;;;;;33.55;17.25;;;;;;;6.08;100.00;98999.44;4677759;30;20061;-86
2024/03/08 19:58:37;;;;;;;31.13;16.80;;;;;;;5.76;100.00;98992.06;4727108;30;20463;-87
2024/03/08 20:19:44;;;;;;;;;;;;;;;;;;;;;
2024/03/08 20:22:57;;;;;;;35.15;18.17;;;;;;;4.96;100.00;98970.72;4704431;30;20119;-85
2024/03/08 20:26:50;;;;;;;29.92;17.20;;;;;;;4.75;100.00;98963.91;4770904;29;20211;-85
2024/03/08 20:29:15;;;;;;;29.65;15.10;;;;;;;4.63;100.00;98970.31;4759884;29;20035;-85
2024/03/08 20:35:59;;;;;;;33.63;17.83;;;;;;;4.61;100.00;98956.53;4772231;29;20066;-85
2024/03/08 20:51:50;;;;;;;29.20;13.70;;;;;;;4.57;100.00;98953.38;4799516;29;20540;-85
2024/03/08 20:54:31;;;;;;;32.53;12.45;;;;;;;4.58;100.00;98952.41;4780498;29;20095;-86
2024/03/08 20:57:14;;;;;;;25.95;13.82;;;;;;;4.57;100.00;98943.72;4798430;29;20046;-88
2024/03/08 21:00:01;;;;;;;19.55;9.75;;;;;;;4.55;100.00;98934.38;4851140;29;20045;-85
2024/03/08 21:02:28;;;;;;;23.65;12.43;;;;;;;4.54;100.00;98930.94;4858963;29;20080;-82
2024/03/08 21:05:24;;;;;;;19.50;9.40;;;;;;;4.61;100.00;98933.81;4844013;29;20441;-85
2024/03/08 21:07:52;;;;;;;28.20;10.20;;;;;;;4.62;100.00;98924.97;4858268;29;20492;-84
2024/03/08 21:10:30;;;;;;;36.30;20.08;;;;;;;4.75;100.00;98937.75;4878005;29;20049;-85
2024/03/08 21:12:57;;;;;;;25.48;14.77;;;;;;;4.71;100.00;98928.53;4875271;29;20083;-85
2024/03/08 21:15:23;;;;;;;30.73;18.85;;;;;;;4.80;100.00;98921.59;4858873;29;20380;-85
2024/03/08 21:17:51;;;;;;;36.55;19.95;;;;;;;4.89;100.00;98925.16;4862500;29;20059;-84
2024/03/08 21:20:20;;;;;;;34.38;16.48;;;;;;;4.89;100.00;98920.72;4857515;29;20476;-84
2024/03/08 21:22:57;;;;;;;22.23;14.25;;;;;;;4.78;100.00;98916.50;4859031;29;20048;-84
2024/03/08 21:28:35;;;;;;;26.30;14.82;;;;;;;4.76;100.00;98904.56;4808395;29;20045;-86
2024/03/08 21:31:06;;;;;;;32.90;19.17;;;;;;;4.86;100.00;98901.88;4857062;29;20037;-85
2024/03/08 21:33:36;;;;;;;31.30;19.80;;;;;;;4.96;100.00;98905.28;4877765;29;20037;-86